sensor_id;sensor_type;location;lat;lon;timestamp;pressure;altitude;pressure_sealevel;temperature;humidity
70343;BME280;57767;42.068;24.752;2022-09-21T00:00:12;98929.25;;;14.72;47.21
70343;BME280;57767;42.068;24.752;2022-09-21T00:01:16;98943.25;;;14.79;47.13
70343;BME280;57767;42.068;24.752;2022-09-21T00:02:19;98947.16;;;14.77;46.77
70343;BME280;57767;42.068;24.752;2022-09-21T00:03:21;98944.50;;;14.77;46.53
70343;BME280;57767;42.068;24.752;2022-09-21T00:04:22;98937.94;;;14.67;46.81
70343;BME280;57767;42.068;24.752;2022-09-21T00:05:24;98945.19;;;14.72;47.16
70343;BME280;57767;42.068;24.752;2022-09-21T00:06:28;98937.94;;;14.67;47.25
70343;BME280;57767;42.068;24.752;2022-09-21T00:07:30;98950.88;;;14.76;46.97
70343;BME280;57767;42.068;24.752;2022-09-21T00:08:32;98941.72;;;14.72;47.96
70343;BME280;57767;42.068;24.752;2022-09-21T00:09:34;98946.72;;;14.68;47.83
70343;BME280;57767;42.068;24.752;2022-09-21T00:10:36;98950.66;;;14.65;48.02
70343;BME280;57767;42.068;24.752;2022-09-21T00:11:38;98938.63;;;14.51;47.99
70343;BME280;57767;42.068;24.752;2022-09-21T00:12:39;98942.44;;;14.44;48.20
70343;BME280;57767;42.068;24.752;2022-09-21T00:13:42;98951.47;;;14.43;48.23
70343;BME280;57767;42.068;24.752;2022-09-21T00:14:47;98953.59;;;14.34;48.50
70343;BME280;57767;42.068;24.752;2022-09-21T00:15:48;98923.78;;;14.09;48.61
70343;BME280;57767;42.068;24.752;2022-09-21T00:16:51;98937.75;;;14.16;48.42
70343;BME280;57767;42.068;24.752;2022-09-21T00:17:53;98951.25;;;14.14;49.42
70343;BME280;57767;42.068;24.752;2022-09-21T00:18:56;98956.66;;;14.08;49.13
70343;BME280;57767;42.068;24.752;2022-09-21T00:19:58;98961.41;;;14.06;49.70
70343;BME280;57767;42.068;24.752;2022-09-21T00:21:07;98938.38;;;13.88;49.50
70343;BME280;57767;42.068;24.752;2022-09-21T00:22:09;98953.75;;;13.97;49.61
70343;BME280;57767;42.068;24.752;2022-09-21T00:23:11;98957.91;;;13.93;49.92
70343;BME280;57767;42.068;24.752;2022-09-21T00:24:13;98962.41;;;13.93;49.60
70343;BME280;57767;42.068;24.752;2022-09-21T00:25:15;98965.63;;;13.95;49.47
70343;BME280;57767;42.068;24.752;2022-09-21T00:26:20;98948.41;;;13.86;50.22
70343;BME280;57767;42.068;24.752;2022-09-21T00:27:22;98949.81;;;13.88;49.94
70343;BME280;57767;42.068;24.752;2022-09-21T00:28:30;98954.75;;;13.85;50.00
70343;BME280;57767;42.068;24.752;2022-09-21T00:29:32;98960.66;;;13.87;50.07
70343;BME280;57767;42.068;24.752;2022-09-21T00:30:34;98926.47;;;13.67;50.34
70343;BME280;57767;42.068;24.752;2022-09-21T00:31:37;98953.94;;;13.84;50.63
70343;BME280;57767;42.068;24.752;2022-09-21T00:32:39;98958.22;;;13.85;50.55
70343;BME280;57767;42.068;24.752;2022-09-21T00:33:41;98945.59;;;13.69;50.35
70343;BME280;57767;42.068;24.752;2022-09-21T00:34:46;98955.47;;;13.80;50.61
70343;BME280;57767;42.068;24.752;2022-09-21T00:35:48;98907.13;;;13.48;50.78
70343;BME280;57767;42.068;24.752;2022-09-21T00:36:50;98967.44;;;13.83;50.11
70343;BME280;57767;42.068;24.752;2022-09-21T00:37:52;98958.66;;;13.82;50.34
70343;BME280;57767;42.068;24.752;2022-09-21T00:38:55;98934.41;;;13.67;50.14
70343;BME280;57767;42.068;24.752;2022-09-21T00:39:58;98948.53;;;13.79;50.33
70343;BME280;57767;42.068;24.752;2022-09-21T00:41:00;98947.03;;;13.83;50.08
70343;BME280;57767;42.068;24.752;2022-09-21T00:42:09;98947.25;;;13.82;50.05
70343;BME280;57767;42.068;24.752;2022-09-21T00:43:13;98939.28;;;13.82;49.82
70343;BME280;57767;42.068;24.752;2022-09-21T00:44:23;98943.78;;;13.81;50.12
70343;BME280;57767;42.068;24.752;2022-09-21T00:45:26;98930.63;;;13.75;50.18
70343;BME280;57767;42.068;24.752;2022-09-21T00:46:29;98945.78;;;13.86;49.50
70343;BME280;57767;42.068;24.752;2022-09-21T00:47:38;98951.44;;;13.89;49.56
70343;BME280;57767;42.068;24.752;2022-09-21T00:48:42;98939.56;;;13.92;48.85
70343;BME280;57767;42.068;24.752;2022-09-21T00:49:46;98947.88;;;13.95;49.04
70343;BME280;57767;42.068;24.752;2022-09-21T00:50:51;98946.81;;;13.96;48.75
70343;BME280;57767;42.068;24.752;2022-09-21T00:51:57;98952.72;;;13.98;48.80
70343;BME280;57767;42.068;24.752;2022-09-21T00:53:00;98942.47;;;14.02;48.42
70343;BME280;57767;42.068;24.752;2022-09-21T00:54:10;98928.25;;;13.96;48.40
70343;BME280;57767;42.068;24.752;2022-09-21T00:56:21;98942.94;;;14.11;47.55
70343;BME280;57767;42.068;24.752;2022-09-21T00:57:24;98940.41;;;14.16;47.68
70343;BME280;57767;42.068;24.752;2022-09-21T00:58:30;98946.53;;;14.16;48.00
70343;BME280;57767;42.068;24.752;2022-09-21T00:59:34;98939.94;;;14.19;47.75
70343;BME280;57767;42.068;24.752;2022-09-21T01:00:37;98941.09;;;14.23;47.22
70343;BME280;57767;42.068;24.752;2022-09-21T01:01:41;98936.16;;;14.26;46.91
70343;BME280;57767;42.068;24.752;2022-09-21T01:02:44;98938.59;;;14.28;47.01
70343;BME280;57767;42.068;24.752;2022-09-21T01:03:47;98942.38;;;14.32;46.76
70343;BME280;57767;42.068;24.752;2022-09-21T01:04:51;98942.97;;;14.34;46.92
70343;BME280;57767;42.068;24.752;2022-09-21T01:05:57;98941.69;;;14.37;46.95
70343;BME280;57767;42.068;24.752;2022-09-21T01:07:01;98937.59;;;14.41;46.78
70343;BME280;57767;42.068;24.752;2022-09-21T01:08:08;98939.53;;;14.45;46.19
70343;BME280;57767;42.068;24.752;2022-09-21T01:09:13;98935.38;;;14.49;45.60
70343;BME280;57767;42.068;24.752;2022-09-21T01:10:17;98938.03;;;14.49;45.87
70343;BME280;57767;42.068;24.752;2022-09-21T01:14:59;98932.28;;;14.52;45.30
70343;BME280;57767;42.068;24.752;2022-09-21T01:19:11;98934.72;;;14.54;45.25
70343;BME280;57767;42.068;24.752;2022-09-21T01:22:02;98922.34;;;14.48;44.92
70343;BME280;57767;42.068;24.752;2022-09-21T01:23:15;98933.66;;;14.55;45.72
70343;BME280;57767;42.068;24.752;2022-09-21T01:29:05;98934.34;;;14.62;46.80
70343;BME280;57767;42.068;24.752;2022-09-21T01:30:14;98923.72;;;14.62;47.62
70343;BME280;57767;42.068;24.752;2022-09-21T01:31:22;98926.59;;;14.60;47.36
70343;BME280;57767;42.068;24.752;2022-09-21T01:33:47;98926.97;;;14.64;47.48
70343;BME280;57767;42.068;24.752;2022-09-21T01:35:02;98919.91;;;14.58;47.93
70343;BME280;57767;42.068;24.752;2022-09-21T01:36:10;98925.78;;;14.60;48.12
70343;BME280;57767;42.068;24.752;2022-09-21T01:37:17;98922.09;;;14.61;48.41
70343;BME280;57767;42.068;24.752;2022-09-21T01:38:26;98920.47;;;14.60;48.82
70343;BME280;57767;42.068;24.752;2022-09-21T01:39:32;98924.75;;;14.61;48.82
70343;BME280;57767;42.068;24.752;2022-09-21T01:40:40;98919.22;;;14.62;49.34
70343;BME280;57767;42.068;24.752;2022-09-21T01:41:43;98920.72;;;14.58;49.41
70343;BME280;57767;42.068;24.752;2022-09-21T01:42:48;98925.47;;;14.56;49.63
70343;BME280;57767;42.068;24.752;2022-09-21T01:43:57;98900.59;;;14.39;49.72
70343;BME280;57767;42.068;24.752;2022-09-21T01:45:04;98918.63;;;14.49;49.71
70343;BME280;57767;42.068;24.752;2022-09-21T01:46:11;98907.16;;;14.37;50.30
70343;BME280;57767;42.068;24.752;2022-09-21T01:47:16;98914.22;;;14.31;50.49
70343;BME280;57767;42.068;24.752;2022-09-21T01:48:20;98898.53;;;14.18;50.41
70343;BME280;57767;42.068;24.752;2022-09-21T01:49:30;98913.16;;;14.20;50.30
70343;BME280;57767;42.068;24.752;2022-09-21T01:50:39;98897.94;;;14.16;49.99
70343;BME280;57767;42.068;24.752;2022-09-21T01:51:47;98922.44;;;14.29;49.68
70343;BME280;57767;42.068;24.752;2022-09-21T01:54:28;98910.72;;;14.19;49.23
70343;BME280;57767;42.068;24.752;2022-09-21T01:55:34;98911.66;;;14.24;48.57
70343;BME280;57767;42.068;24.752;2022-09-21T01:58:23;98920.31;;;14.20;47.66
70343;BME280;57767;42.068;24.752;2022-09-21T01:59:41;98910.97;;;14.17;47.42
70343;BME280;57767;42.068;24.752;2022-09-21T02:00:51;98917.56;;;14.15;47.74
70343;BME280;57767;42.068;24.752;2022-09-21T02:01:58;98919.19;;;14.16;47.18
70343;BME280;57767;42.068;24.752;2022-09-21T02:03:15;98921.03;;;14.15;47.16
70343;BME280;57767;42.068;24.752;2022-09-21T02:04:20;98917.09;;;14.18;46.98
70343;BME280;57767;42.068;24.752;2022-09-21T02:05:24;98910.16;;;14.17;46.42
70343;BME280;57767;42.068;24.752;2022-09-21T02:06:27;98908.88;;;14.19;46.66
70343;BME280;57767;42.068;24.752;2022-09-21T02:07:34;98906.34;;;14.13;46.30
70343;BME280;57767;42.068;24.752;2022-09-21T02:08:37;98917.44;;;14.21;46.24
70343;BME280;57767;42.068;24.752;2022-09-21T02:09:39;98906.72;;;14.16;46.12
70343;BME280;57767;42.068;24.752;2022-09-21T02:10:47;98914.19;;;14.19;45.90
70343;BME280;57767;42.068;24.752;2022-09-21T02:11:50;98898.38;;;14.13;45.82
70343;BME280;57767;42.068;24.752;2022-09-21T02:12:57;98918.16;;;14.28;45.53
70343;BME280;57767;42.068;24.752;2022-09-21T02:14:01;98880.59;;;14.02;45.62
70343;BME280;57767;42.068;24.752;2022-09-21T02:15:04;98904.28;;;14.15;45.52
70343;BME280;57767;42.068;24.752;2022-09-21T02:17:36;98918.03;;;14.35;45.41
70343;BME280;57767;42.068;24.752;2022-09-21T02:19:48;98918.84;;;14.35;45.22
70343;BME280;57767;42.068;24.752;2022-09-21T02:20:31;98922.88;;;14.38;45.57
70343;BME280;57767;42.068;24.752;2022-09-21T02:23:22;98917.16;;;14.41;45.13
70343;BME280;57767;42.068;24.752;2022-09-21T02:24:41;98921.97;;;14.44;45.22
70343;BME280;57767;42.068;24.752;2022-09-21T02:26:02;98928.69;;;14.47;44.88
70343;BME280;57767;42.068;24.752;2022-09-21T02:27:12;98917.81;;;14.48;44.98
70343;BME280;57767;42.068;24.752;2022-09-21T02:28:25;98919.44;;;14.49;45.07
70343;BME280;57767;42.068;24.752;2022-09-21T02:30:43;98904.44;;;14.43;45.08
70343;BME280;57767;42.068;24.752;2022-09-21T02:33:29;98917.50;;;14.56;44.54
70343;BME280;57767;42.068;24.752;2022-09-21T02:34:49;98911.91;;;14.58;44.73
70343;BME280;57767;42.068;24.752;2022-09-21T02:36:13;98907.56;;;14.52;45.11
70343;BME280;57767;42.068;24.752;2022-09-21T02:38:50;98916.78;;;14.61;45.23
70343;BME280;57767;42.068;24.752;2022-09-21T02:39:59;98926.16;;;14.63;44.82
70343;BME280;57767;42.068;24.752;2022-09-21T02:41:10;98920.84;;;14.63;44.65
70343;BME280;57767;42.068;24.752;2022-09-21T02:42:18;98918.53;;;14.55;45.16
70343;BME280;57767;42.068;24.752;2022-09-21T02:43:31;98923.13;;;14.60;44.78
70343;BME280;57767;42.068;24.752;2022-09-21T02:44:46;98921.88;;;14.62;45.06
70343;BME280;57767;42.068;24.752;2022-09-21T02:46:02;98922.69;;;14.63;44.62
70343;BME280;57767;42.068;24.752;2022-09-21T02:47:51;98926.50;;;14.67;44.85
70343;BME280;57767;42.068;24.752;2022-09-21T02:48:42;98904.66;;;14.53;44.65
70343;BME280;57767;42.068;24.752;2022-09-21T02:49:49;98913.22;;;14.55;45.15
70343;BME280;57767;42.068;24.752;2022-09-21T02:50:54;98915.63;;;14.57;45.06
70343;BME280;57767;42.068;24.752;2022-09-21T02:52:02;98927.53;;;14.66;44.83
70343;BME280;57767;42.068;24.752;2022-09-21T02:53:06;98910.31;;;14.57;45.04
70343;BME280;57767;42.068;24.752;2022-09-21T02:54:13;98926.16;;;14.63;45.58
70343;BME280;57767;42.068;24.752;2022-09-21T02:55:16;98928.56;;;14.65;45.44
70343;BME280;57767;42.068;24.752;2022-09-21T02:56:18;98927.31;;;14.67;46.25
70343;BME280;57767;42.068;24.752;2022-09-21T02:57:22;98929.97;;;14.67;47.25
70343;BME280;57767;42.068;24.752;2022-09-21T02:58:25;98934.25;;;14.68;47.41
70343;BME280;57767;42.068;24.752;2022-09-21T02:59:29;98929.97;;;14.67;48.03
70343;BME280;57767;42.068;24.752;2022-09-21T03:00:33;98933.97;;;14.70;47.99
70343;BME280;57767;42.068;24.752;2022-09-21T03:01:39;98912.28;;;14.61;47.92
70343;BME280;57767;42.068;24.752;2022-09-21T03:02:43;98933.97;;;14.70;47.89
70343;BME280;57767;42.068;24.752;2022-09-21T03:03:45;98932.13;;;14.70;47.85
70343;BME280;57767;42.068;24.752;2022-09-21T03:04:47;98926.38;;;14.74;47.46
70343;BME280;57767;42.068;24.752;2022-09-21T03:05:53;98933.28;;;14.75;47.53
70343;BME280;57767;42.068;24.752;2022-09-21T03:06:55;98938.63;;;14.75;47.85
70343;BME280;57767;42.068;24.752;2022-09-21T03:07:57;98928.44;;;14.72;47.62
70343;BME280;57767;42.068;24.752;2022-09-21T03:08:59;98937.81;;;14.74;47.82
70343;BME280;57767;42.068;24.752;2022-09-21T03:10:01;98921.41;;;14.65;47.64
70343;BME280;57767;42.068;24.752;2022-09-21T03:11:04;98946.00;;;14.73;47.95
70343;BME280;57767;42.068;24.752;2022-09-21T03:12:05;98943.56;;;14.71;47.81
70343;BME280;57767;42.068;24.752;2022-09-21T03:13:08;98942.78;;;14.70;47.58
70343;BME280;57767;42.068;24.752;2022-09-21T03:14:10;98939.28;;;14.70;47.39
70343;BME280;57767;42.068;24.752;2022-09-21T03:15:11;98930.06;;;14.61;47.57
70343;BME280;57767;42.068;24.752;2022-09-21T03:16:13;98939.56;;;14.68;47.30
70343;BME280;57767;42.068;24.752;2022-09-21T03:17:15;98924.97;;;14.59;47.16
70343;BME280;57767;42.068;24.752;2022-09-21T03:18:17;98942.22;;;14.68;47.29
70343;BME280;57767;42.068;24.752;2022-09-21T03:19:19;98923.84;;;14.55;46.91
70343;BME280;57767;42.068;24.752;2022-09-21T03:20:20;98922.22;;;14.54;47.14
70343;BME280;57767;42.068;24.752;2022-09-21T03:21:22;98933.44;;;14.68;46.73
70343;BME280;57767;42.068;24.752;2022-09-21T03:22:24;98936.91;;;14.68;46.39
70343;BME280;57767;42.068;24.752;2022-09-21T03:23:26;98944.88;;;14.68;46.52
70343;BME280;57767;42.068;24.752;2022-09-21T03:24:27;98936.63;;;14.70;46.50
70343;BME280;57767;42.068;24.752;2022-09-21T03:25:48;98928.00;;;14.63;46.33
70343;BME280;57767;42.068;24.752;2022-09-21T03:26:50;98938.50;;;14.69;46.19
70343;BME280;57767;42.068;24.752;2022-09-21T03:27:52;98939.88;;;14.72;46.44
70343;BME280;57767;42.068;24.752;2022-09-21T03:28:55;98938.75;;;14.68;46.60
70343;BME280;57767;42.068;24.752;2022-09-21T03:29:56;98946.47;;;14.69;46.07
70343;BME280;57767;42.068;24.752;2022-09-21T03:31:02;98938.63;;;14.63;46.75
70343;BME280;57767;42.068;24.752;2022-09-21T03:32:04;98942.91;;;14.64;46.84
70343;BME280;57767;42.068;24.752;2022-09-21T03:33:06;98932.84;;;14.54;47.40
70343;BME280;57767;42.068;24.752;2022-09-21T03:34:08;98943.59;;;14.59;47.58
70343;BME280;57767;42.068;24.752;2022-09-21T03:35:11;98938.63;;;14.63;47.24
70343;BME280;57767;42.068;24.752;2022-09-21T03:36:13;98950.19;;;14.68;47.74
70343;BME280;57767;42.068;24.752;2022-09-21T03:37:15;98944.88;;;14.68;47.75
70343;BME280;57767;42.068;24.752;2022-09-21T03:38:18;98946.47;;;14.69;47.33
70343;BME280;57767;42.068;24.752;2022-09-21T03:39:20;98946.47;;;14.69;47.63
70343;BME280;57767;42.068;24.752;2022-09-21T03:40:22;98949.38;;;14.68;47.38
70343;BME280;57767;42.068;24.752;2022-09-21T03:41:24;98948.56;;;14.67;47.88
70343;BME280;57767;42.068;24.752;2022-09-21T03:42:25;98938.84;;;14.61;47.90
70343;BME280;57767;42.068;24.752;2022-09-21T03:43:27;98942.78;;;14.59;48.18
70343;BME280;57767;42.068;24.752;2022-09-21T03:44:29;98948.66;;;14.61;47.49
70343;BME280;57767;42.068;24.752;2022-09-21T03:45:31;98955.38;;;14.63;46.41
70343;BME280;57767;42.068;24.752;2022-09-21T03:46:32;98921.97;;;14.44;46.59
70343;BME280;57767;42.068;24.752;2022-09-21T03:47:37;98955.59;;;14.62;46.11
70343;BME280;57767;42.068;24.752;2022-09-21T03:48:39;98950.28;;;14.62;46.46
70343;BME280;57767;42.068;24.752;2022-09-21T03:49:42;98950.28;;;14.62;46.37
70343;BME280;57767;42.068;24.752;2022-09-21T03:50:44;98947.41;;;14.63;46.24
70343;BME280;57767;42.068;24.752;2022-09-21T03:51:46;98951.69;;;14.64;45.92
70343;BME280;57767;42.068;24.752;2022-09-21T03:52:48;98925.94;;;14.53;45.41
70343;BME280;57767;42.068;24.752;2022-09-21T03:53:50;98948.22;;;14.64;46.22
70343;BME280;57767;42.068;24.752;2022-09-21T03:54:51;98936.88;;;14.57;46.20
70343;BME280;57767;42.068;24.752;2022-09-21T03:55:53;98952.72;;;14.63;46.22
70343;BME280;57767;42.068;24.752;2022-09-21T03:56:55;98953.19;;;14.60;46.75
70343;BME280;57767;42.068;24.752;2022-09-21T03:57:56;98930.75;;;14.45;47.11
70343;BME280;57767;42.068;24.752;2022-09-21T03:58:58;98953.88;;;14.56;47.87
70343;BME280;57767;42.068;24.752;2022-09-21T04:00:04;98948.66;;;14.49;47.64
70343;BME280;57767;42.068;24.752;2022-09-21T04:01:07;98945.66;;;14.46;47.74
70343;BME280;57767;42.068;24.752;2022-09-21T04:02:08;98961.28;;;14.54;48.18
70343;BME280;57767;42.068;24.752;2022-09-21T04:03:10;98956.19;;;14.52;48.64
70343;BME280;57767;42.068;24.752;2022-09-21T04:04:12;98959.44;;;14.54;48.77
70343;BME280;57767;42.068;24.752;2022-09-21T04:05:15;98963.69;;;14.55;49.24
70343;BME280;57767;42.068;24.752;2022-09-21T04:06:17;98940.03;;;14.42;49.16
70343;BME280;57767;42.068;24.752;2022-09-21T04:07:19;98967.16;;;14.56;49.08
70343;BME280;57767;42.068;24.752;2022-09-21T04:08:20;98960.56;;;14.58;48.93
70343;BME280;57767;42.068;24.752;2022-09-21T04:09:22;98957.81;;;14.53;49.20
70343;BME280;57767;42.068;24.752;2022-09-21T04:10:24;98965.78;;;14.42;49.62
70343;BME280;57767;42.068;24.752;2022-09-21T04:11:29;98950.03;;;14.28;50.35
70343;BME280;57767;42.068;24.752;2022-09-21T04:12:33;98967.63;;;14.41;50.11
70343;BME280;57767;42.068;24.752;2022-09-21T04:13:36;98962.53;;;14.40;50.11
70343;BME280;57767;42.068;24.752;2022-09-21T04:14:38;98963.44;;;14.45;50.91
70343;BME280;57767;42.068;24.752;2022-09-21T04:15:40;98969.34;;;14.47;50.93
70343;BME280;57767;42.068;24.752;2022-09-21T04:16:41;98976.50;;;14.47;50.54
70343;BME280;57767;42.068;24.752;2022-09-21T04:17:44;98968.84;;;14.39;51.41
70343;BME280;57767;42.068;24.752;2022-09-21T04:18:46;98969.88;;;14.38;51.20
70343;BME280;57767;42.068;24.752;2022-09-21T04:19:50;98946.56;;;14.28;51.19
70343;BME280;57767;42.068;24.752;2022-09-21T04:20:52;98970.28;;;14.41;51.15
70343;BME280;57767;42.068;24.752;2022-09-21T04:21:54;98970.69;;;14.38;51.20
70343;BME280;57767;42.068;24.752;2022-09-21T04:22:56;98957.41;;;14.26;51.42
70343;BME280;57767;42.068;24.752;2022-09-21T04:23:58;98976.91;;;14.32;51.33
70343;BME280;57767;42.068;24.752;2022-09-21T04:25:01;98952.06;;;14.15;51.41
70343;BME280;57767;42.068;24.752;2022-09-21T04:26:03;98973.78;;;14.23;51.66
70343;BME280;57767;42.068;24.752;2022-09-21T04:27:08;98964.44;;;14.21;51.19
70343;BME280;57767;42.068;24.752;2022-09-21T04:28:10;98943.88;;;14.05;51.14
70343;BME280;57767;42.068;24.752;2022-09-21T04:29:12;98969.84;;;14.14;51.51
70343;BME280;57767;42.068;24.752;2022-09-21T04:30:15;98962.13;;;14.13;51.27
70343;BME280;57767;42.068;24.752;2022-09-21T04:31:18;98964.41;;;14.09;49.96
70343;BME280;57767;42.068;24.752;2022-09-21T04:32:20;98945.78;;;13.97;49.58
70343;BME280;57767;42.068;24.752;2022-09-21T04:33:22;98965.56;;;14.02;49.16
70343;BME280;57767;42.068;24.752;2022-09-21T04:34:24;98947.53;;;13.92;49.20
70343;BME280;57767;42.068;24.752;2022-09-21T04:35:26;98962.44;;;14.05;48.52
70343;BME280;57767;42.068;24.752;2022-09-21T04:36:28;98962.44;;;14.05;48.45
70343;BME280;57767;42.068;24.752;2022-09-21T04:37:37;98967.97;;;14.03;49.01
70343;BME280;57767;42.068;24.752;2022-09-21T04:38:38;98961.41;;;14.06;48.27
70343;BME280;57767;42.068;24.752;2022-09-21T04:39:41;98958.28;;;14.09;48.12
70343;BME280;57767;42.068;24.752;2022-09-21T04:40:42;98968.09;;;14.08;48.41
70343;BME280;57767;42.068;24.752;2022-09-21T04:41:44;98965.44;;;14.08;48.06
70343;BME280;57767;42.068;24.752;2022-09-21T04:42:52;98963.72;;;14.14;48.09
70343;BME280;57767;42.068;24.752;2022-09-21T04:43:54;98961.06;;;14.14;48.07
70343;BME280;57767;42.068;24.752;2022-09-21T04:44:56;98969.63;;;14.16;48.39
70343;BME280;57767;42.068;24.752;2022-09-21T04:46:02;98954.97;;;14.13;47.81
70343;BME280;57767;42.068;24.752;2022-09-21T04:47:04;98965.59;;;14.25;47.09
70343;BME280;57767;42.068;24.752;2022-09-21T04:48:06;98961.91;;;14.26;47.34
70343;BME280;57767;42.068;24.752;2022-09-21T04:49:08;98966.75;;;14.29;47.55
70343;BME280;57767;42.068;24.752;2022-09-21T04:50:10;98962.59;;;14.33;46.88
70343;BME280;57767;42.068;24.752;2022-09-21T04:51:13;98960.06;;;14.38;47.42
70343;BME280;57767;42.068;24.752;2022-09-21T04:52:16;98964.75;;;14.43;47.05
70343;BME280;57767;42.068;24.752;2022-09-21T04:53:19;98953.38;;;14.35;47.34
70343;BME280;57767;42.068;24.752;2022-09-21T04:54:21;98961.56;;;14.34;48.43
70343;BME280;57767;42.068;24.752;2022-09-21T04:55:23;98951.63;;;14.29;49.47
70343;BME280;57767;42.068;24.752;2022-09-21T04:56:25;98968.44;;;14.42;49.95
70343;BME280;57767;42.068;24.752;2022-09-21T04:57:26;98967.44;;;14.36;50.17
70343;BME280;57767;42.068;24.752;2022-09-21T04:58:29;98960.75;;;14.33;50.88
70343;BME280;57767;42.068;24.752;2022-09-21T04:59:30;98964.81;;;14.36;51.29
70343;BME280;57767;42.068;24.752;2022-09-21T05:00:32;98967.84;;;14.40;51.55
70343;BME280;57767;42.068;24.752;2022-09-21T05:01:34;98959.25;;;14.38;51.75
70343;BME280;57767;42.068;24.752;2022-09-21T05:02:36;98966.69;;;14.47;51.51
70343;BME280;57767;42.068;24.752;2022-09-21T05:03:38;98963.00;;;14.48;51.03
70343;BME280;57767;42.068;24.752;2022-09-21T05:04:40;98967.63;;;14.53;51.47
70343;BME280;57767;42.068;24.752;2022-09-21T05:05:48;98945.75;;;14.39;52.22
70343;BME280;57767;42.068;24.752;2022-09-21T05:06:51;98955.59;;;14.50;52.39
70343;BME280;57767;42.068;24.752;2022-09-21T05:07:52;98962.09;;;14.54;51.75
70343;BME280;57767;42.068;24.752;2022-09-21T05:08:55;98967.50;;;14.59;51.62
70343;BME280;57767;42.068;24.752;2022-09-21T05:10:15;98972.00;;;14.70;51.91
70343;BME280;57767;42.068;24.752;2022-09-21T05:11:18;98969.34;;;14.70;52.34
70343;BME280;57767;42.068;24.752;2022-09-21T05:12:20;98972.13;;;14.76;52.06
70343;BME280;57767;42.068;24.752;2022-09-21T05:13:21;98966.69;;;14.82;52.62
70343;BME280;57767;42.068;24.752;2022-09-21T05:14:23;98980.09;;;14.87;52.02
70343;BME280;57767;42.068;24.752;2022-09-21T05:15:25;98964.94;;;14.88;52.77
70343;BME280;57767;42.068;24.752;2022-09-21T05:16:27;98972.25;;;14.92;52.37
70343;BME280;57767;42.068;24.752;2022-09-21T05:17:28;98955.25;;;14.82;52.23
70343;BME280;57767;42.068;24.752;2022-09-21T05:18:30;98969.69;;;14.97;52.03
70343;BME280;57767;42.068;24.752;2022-09-21T05:19:32;98972.47;;;15.02;51.58
70343;BME280;57767;42.068;24.752;2022-09-21T05:20:34;98966.69;;;15.05;51.12
70343;BME280;57767;42.068;24.752;2022-09-21T05:21:35;98972.31;;;15.09;50.84
70343;BME280;57767;42.068;24.752;2022-09-21T05:22:37;98971.41;;;15.15;50.86
70343;BME280;57767;42.068;24.752;2022-09-21T05:23:39;98959.25;;;15.07;50.93
70343;BME280;57767;42.068;24.752;2022-09-21T05:24:41;98971.47;;;15.20;50.79
70343;BME280;57767;42.068;24.752;2022-09-21T05:25:43;98969.16;;;15.24;50.48
70343;BME280;57767;42.068;24.752;2022-09-21T05:26:44;98957.25;;;15.26;50.11
70343;BME280;57767;42.068;24.752;2022-09-21T05:27:46;98971.72;;;15.30;50.42
70343;BME280;57767;42.068;24.752;2022-09-21T05:28:48;98969.72;;;15.37;51.32
70343;BME280;57767;42.068;24.752;2022-09-21T05:29:50;98962.88;;;15.41;51.04
70343;BME280;57767;42.068;24.752;2022-09-21T05:33:39;98967.81;;;15.61;50.65
70343;BME280;57767;42.068;24.752;2022-09-21T05:38:56;98965.09;;;15.73;50.35
70343;BME280;57767;42.068;24.752;2022-09-21T05:39:58;98973.75;;;15.80;50.33
70343;BME280;57767;42.068;24.752;2022-09-21T05:41:00;98970.59;;;15.83;50.59
70343;BME280;57767;42.068;24.752;2022-09-21T05:42:02;98941.06;;;15.68;50.72
70343;BME280;57767;42.068;24.752;2022-09-21T05:43:04;98969.66;;;15.89;50.69
70343;BME280;57767;42.068;24.752;2022-09-21T05:44:10;98970.81;;;15.93;50.18
70343;BME280;57767;42.068;24.752;2022-09-21T05:45:15;98963.94;;;15.97;49.74
70343;BME280;57767;42.068;24.752;2022-09-21T05:47:42;98947.31;;;15.90;49.02
70343;BME280;57767;42.068;24.752;2022-09-21T05:48:54;98965.88;;;16.02;51.07
70343;BME280;57767;42.068;24.752;2022-09-21T06:03:35;98974.06;;;16.29;47.09
70343;BME280;57767;42.068;24.752;2022-09-21T06:04:37;98965.41;;;16.22;46.46
70343;BME280;57767;42.068;24.752;2022-09-21T06:05:39;98968.66;;;16.24;45.61
70343;BME280;57767;42.068;24.752;2022-09-21T06:06:42;98966.16;;;16.34;45.67
70343;BME280;57767;42.068;24.752;2022-09-21T06:07:44;98963.56;;;16.39;45.34
70343;BME280;57767;42.068;24.752;2022-09-21T06:08:45;98972.72;;;16.43;44.95
70343;BME280;57767;42.068;24.752;2022-09-21T06:09:47;98975.84;;;16.40;44.82
70343;BME280;57767;42.068;24.752;2022-09-21T06:10:49;98975.84;;;16.40;44.34
70343;BME280;57767;42.068;24.752;2022-09-21T06:11:51;98980.59;;;16.38;44.70
70343;BME280;57767;42.068;24.752;2022-09-21T06:12:53;98977.38;;;16.36;44.31
70343;BME280;57767;42.068;24.752;2022-09-21T06:13:54;98990.69;;;16.36;44.20
70343;BME280;57767;42.068;24.752;2022-09-21T06:14:56;98980.84;;;16.36;45.13
70343;BME280;57767;42.068;24.752;2022-09-21T06:16:02;98979.09;;;16.42;44.01
70343;BME280;57767;42.068;24.752;2022-09-21T06:17:04;98979.16;;;16.47;44.78
70343;BME280;57767;42.068;24.752;2022-09-21T06:18:06;98978.19;;;16.53;44.63
70343;BME280;57767;42.068;24.752;2022-09-21T06:19:12;98983.69;;;16.63;44.25
70343;BME280;57767;42.068;24.752;2022-09-21T06:20:14;98972.78;;;16.65;44.74
70343;BME280;57767;42.068;24.752;2022-09-21T06:21:15;98985.53;;;16.79;44.95
70343;BME280;57767;42.068;24.752;2022-09-21T06:22:17;98976.97;;;16.77;44.85
70343;BME280;57767;42.068;24.752;2022-09-21T06:23:19;98973.59;;;16.82;43.50
70343;BME280;57767;42.068;24.752;2022-09-21T06:24:21;98971.72;;;16.82;44.50